Time;durP1;ratioP1;P1;durP2;ratioP2;P2;SDS_P1;SDS_P2;PMS_P1;PMS_P2;Temp;Humidity;BMP_temperature;BMP_pressure;BME280_temperature;BME280_humidity;BME280_pressure;Samples;Min_cycle;Max_cycle;Signal;HPM_P1;HPM_P2
2022/08/22 00:01:42;;;;;;;5.40;5.00;;;17.20;99.90;;;;;;5021122;28;20208;-74
2022/08/22 00:04:10;;;;;;;4.93;4.50;;;17.30;99.90;;;;;;5022050;28;20177;-74
2022/08/22 00:06:51;;;;;;;7.70;5.15;;;17.20;99.90;;;;;;5035634;28;20187;-75
2022/08/22 00:09:32;;;;;;;4.75;4.35;;;17.20;99.90;;;;;;5030932;28;20172;-76
2022/08/22 00:12:13;;;;;;;5.75;5.25;;;17.20;99.90;;;;;;5041708;28;20204;-75
2022/08/22 00:15:11;;;;;;;4.65;4.35;;;17.20;99.90;;;;;;5041999;28;20171;-75
2022/08/22 00:18:14;;;;;;;4.80;4.40;;;17.20;99.90;;;;;;5041666;28;20208;-75
2022/08/22 00:20:57;;;;;;;5.25;4.70;;;17.20;99.90;;;;;;5036526;28;20181;-74
2022/08/22 00:23:34;;;;;;;4.88;4.47;;;17.20;99.90;;;;;;5058382;28;20172;-74
2022/08/22 00:26:29;;;;;;;5.15;4.70;;;17.30;99.90;;;;;;5043072;28;20180;-74
2022/08/22 00:29:01;;;;;;;4.63;4.22;;;17.30;99.90;;;;;;5044482;28;20242;-74
2022/08/22 00:31:38;;;;;;;4.78;4.38;;;17.20;99.90;;;;;;5040985;28;20245;-75
2022/08/22 00:34:04;;;;;;;4.28;3.97;;;17.20;99.90;;;;;;5041280;28;20589;-76
2022/08/22 00:36:56;;;;;;;5.85;4.72;;;17.10;99.90;;;;;;5043376;28;20171;-77
2022/08/22 00:39:41;;;;;;;4.50;4.10;;;17.10;99.90;;;;;;5025468;28;20173;-75
2022/08/22 00:42:07;;;;;;;4.80;4.40;;;17.10;99.90;;;;;;5035967;28;20181;-76
2022/08/22 00:44:50;;;;;;;4.35;4.13;;;17.00;99.90;;;;;;5047011;28;20579;-76
2022/08/22 00:47:37;;;;;;;5.60;4.93;;;16.90;99.90;;;;;;5035090;28;20201;-74
2022/08/22 00:50:26;;;;;;;4.90;4.38;;;16.80;99.90;;;;;;5026845;28;20646;-74
2022/08/22 00:53:29;;;;;;;7.50;4.50;;;16.80;99.90;;;;;;5038203;28;20196;-73
2022/08/22 00:56:16;;;;;;;4.10;3.83;;;16.80;99.90;;;;;;5040577;28;20185;-75
2022/08/22 00:59:03;;;;;;;6.30;4.53;;;16.70;99.90;;;;;;5029420;28;20214;-75
2022/08/22 01:02:06;;;;;;;5.57;5.07;;;16.70;99.90;;;;;;5042294;28;20259;-75
2022/08/22 01:04:46;;;;;;;5.63;5.13;;;16.60;99.90;;;;;;5033484;28;20183;-76
2022/08/22 01:07:43;;;;;;;4.38;4.07;;;16.60;99.90;;;;;;5025183;28;20198;-76
2022/08/22 01:10:21;;;;;;;4.70;4.40;;;16.50;99.90;;;;;;5028514;28;20169;-76
2022/08/22 01:13:12;;;;;;;4.72;4.28;;;16.50;99.90;;;;;;5034119;28;20249;-76
2022/08/22 01:15:39;;;;;;;4.60;4.25;;;16.50;99.90;;;;;;5036312;28;20636;-80
2022/08/22 01:18:49;;;;;;;4.90;4.50;;;16.50;99.90;;;;;;5034492;28;20211;-76
2022/08/22 01:21:35;;;;;;;4.70;4.30;;;16.40;99.90;;;;;;5057158;28;20274;-76
2022/08/22 01:25:18;;;;;;;4.93;4.43;;;16.40;99.90;;;;;;5044710;28;20188;-76
2022/08/22 01:27:47;;;;;;;4.82;4.32;;;16.30;99.90;;;;;;5035507;28;20705;-75
2022/08/22 01:30:32;;;;;;;4.85;4.45;;;16.40;99.90;;;;;;5043070;28;20237;-76
2022/08/22 01:33:16;;;;;;;4.57;4.30;;;16.40;99.90;;;;;;5041543;28;20177;-77
2022/08/22 01:36:12;;;;;;;4.75;4.35;;;16.40;99.90;;;;;;5042571;28;20212;-76
2022/08/22 01:39:00;;;;;;;5.40;4.93;;;16.40;99.90;;;;;;5035823;28;20200;-75
2022/08/22 01:41:26;;;;;;;5.05;4.57;;;16.30;99.90;;;;;;5032169;28;20260;-75
2022/08/22 01:43:52;;;;;;;5.80;5.30;;;16.20;99.90;;;;;;5038226;28;20188;-75
2022/08/22 01:46:49;;;;;;;6.28;5.07;;;16.10;99.90;;;;;;5064494;28;20176;-76
2022/08/22 01:49:15;;;;;;;5.05;4.65;;;16.00;99.90;;;;;;5032166;28;20180;-74
2022/08/22 01:51:55;;;;;;;4.78;4.38;;;15.90;99.90;;;;;;5046495;28;20235;-74
2022/08/22 01:54:29;;;;;;;5.45;5.05;;;15.80;99.90;;;;;;5046654;28;20172;-74
2022/08/22 01:57:06;;;;;;;6.07;5.55;;;15.70;99.90;;;;;;5044485;28;20196;-74
2022/08/22 01:59:32;;;;;;;5.72;4.90;;;15.60;99.90;;;;;;5045498;28;20187;-75
2022/08/22 02:02:10;;;;;;;7.05;5.10;;;15.60;99.90;;;;;;5045454;28;20540;-74
2022/08/22 02:05:27;;;;;;;5.25;4.85;;;15.70;99.90;;;;;;5046241;28;20229;-75
2022/08/22 02:07:56;;;;;;;5.85;5.35;;;15.50;99.90;;;;;;5034120;28;20270;-75
2022/08/22 02:10:58;;;;;;;5.43;4.93;;;15.50;99.90;;;;;;5042949;28;20179;-74
2022/08/22 02:13:43;;;;;;;6.68;6.07;;;15.40;99.90;;;;;;5030118;28;20299;-74
2022/08/22 02:16:29;;;;;;;5.78;5.32;;;15.40;99.90;;;;;;5030875;28;20183;-75
2022/08/22 02:19:07;;;;;;;6.63;5.05;;;15.30;99.90;;;;;;5043638;28;20172;-75
2022/08/22 02:21:49;;;;;;;5.50;5.00;;;15.30;99.90;;;;;;5032908;28;20370;-76
2022/08/22 02:24:20;;;;;;;5.18;4.78;;;15.30;99.90;;;;;;5040657;28;20252;-75
2022/08/22 02:27:03;;;;;;;5.90;5.07;;;15.30;99.90;;;;;;5061688;28;20551;-76
2022/08/22 02:29:32;;;;;;;6.10;5.60;;;15.30;99.90;;;;;;5033137;28;20181;-75
2022/08/22 02:32:25;;;;;;;6.45;5.22;;;15.30;99.90;;;;;;5037133;28;20227;-75
2022/08/22 02:34:58;;;;;;;5.63;5.18;;;15.30;99.90;;;;;;5027461;28;20699;-73
2022/08/22 02:37:39;;;;;;;5.80;5.20;;;15.20;99.90;;;;;;5025104;28;20193;-74
2022/08/22 02:40:27;;;;;;;6.05;5.55;;;15.10;99.90;;;;;;5034320;28;20206;-75
2022/08/22 02:43:20;;;;;;;6.50;6.00;;;15.00;99.90;;;;;;5034084;28;20191;-75
2022/08/22 02:46:00;;;;;;;5.47;4.93;;;15.00;99.90;;;;;;5035324;28;20173;-75
2022/08/22 02:48:35;;;;;;;5.63;5.13;;;14.90;99.90;;;;;;5027026;28;20267;-75
2022/08/22 02:51:14;;;;;;;5.72;5.22;;;14.90;99.90;;;;;;5035772;28;20604;-75
2022/08/22 02:54:07;;;;;;;5.53;5.00;;;14.80;99.90;;;;;;5019364;28;20256;-75
2022/08/22 02:56:58;;;;;;;5.30;4.82;;;14.70;99.90;;;;;;5028775;28;20660;-75
2022/08/22 03:00:12;;;;;;;5.75;4.93;;;14.70;99.90;;;;;;5026747;28;20251;-75
2022/08/22 03:02:59;;;;;;;5.47;4.97;;;14.60;99.90;;;;;;5024169;28;20207;-74
2022/08/22 03:05:29;;;;;;;7.30;5.35;;;14.60;99.90;;;;;;5023012;28;20200;-73
2022/08/22 03:08:11;;;;;;;5.90;5.40;;;14.60;99.90;;;;;;5031407;28;20196;-74
2022/08/22 03:10:44;;;;;;;6.50;5.22;;;14.70;99.90;;;;;;5026239;28;20177;-75
2022/08/22 03:13:11;;;;;;;6.13;5.63;;;14.70;99.90;;;;;;5026467;28;20190;-75
2022/08/22 03:15:56;;;;;;;6.10;5.38;;;14.70;99.90;;;;;;5033658;28;20221;-75
2022/08/22 03:18:44;;;;;;;6.22;5.72;;;14.60;99.90;;;;;;5026137;28;20205;-74
2022/08/22 03:21:25;;;;;;;5.60;5.20;;;14.50;99.90;;;;;;5028895;28;20180;-74
2022/08/22 03:23:57;;;;;;;5.85;5.35;;;14.50;99.90;;;;;;5031552;28;20553;-75
2022/08/22 03:26:45;;;;;;;6.07;5.57;;;14.50;99.90;;;;;;5040143;28;20179;-74
2022/08/22 03:29:27;;;;;;;5.50;5.10;;;14.40;99.90;;;;;;5035994;28;20184;-74
2022/08/22 03:32:21;;;;;;;6.18;5.68;;;14.30;99.90;;;;;;5048651;28;20222;-74
2022/08/22 03:35:00;;;;;;;8.30;5.38;;;14.30;99.90;;;;;;5030869;28;20185;-74
2022/08/22 03:37:39;;;;;;;5.70;5.30;;;14.30;99.90;;;;;;5015859;28;20601;-74
2022/08/22 03:40:59;;;;;;;6.32;5.70;;;14.30;99.90;;;;;;5015857;28;20183;-74
2022/08/22 03:44:02;;;;;;;5.65;5.10;;;14.30;99.90;;;;;;5029760;28;20669;-75
2022/08/22 03:46:49;;;;;;;8.77;5.70;;;14.20;99.90;;;;;;4998500;28;20262;-75
2022/08/22 03:49:46;;;;;;;5.82;5.32;;;14.30;99.90;;;;;;5024074;28;20614;-75
2022/08/22 03:53:07;;;;;;;6.18;5.60;;;14.20;99.90;;;;;;5032567;28;20578;-76
2022/08/22 03:56:11;;;;;;;8.13;5.93;;;14.20;99.90;;;;;;5061097;28;20222;-76
2022/08/22 03:58:58;;;;;;;5.85;5.32;;;14.10;99.90;;;;;;5033424;28;20624;-76
2022/08/22 04:01:43;;;;;;;6.30;5.70;;;14.00;99.90;;;;;;5033333;28;20320;-75
2022/08/22 04:04:18;;;;;;;7.05;5.95;;;14.00;99.90;;;;;;5037307;28;20196;-75
2022/08/22 04:07:06;;;;;;;5.95;5.45;;;14.00;99.90;;;;;;5042545;28;20735;-75
2022/08/22 04:10:10;;;;;;;6.50;5.90;;;14.00;99.90;;;;;;5043829;28;20229;-75
2022/08/22 04:12:46;;;;;;;5.55;5.15;;;14.00;99.90;;;;;;5026826;28;20206;-76
2022/08/22 04:15:44;;;;;;;6.35;5.85;;;14.00;99.90;;;;;;5034887;28;20181;-76
2022/08/22 04:18:22;;;;;;;5.57;5.18;;;14.00;99.90;;;;;;5029948;28;20288;-76
2022/08/22 04:21:08;;;;;;;6.20;5.60;;;14.00;99.90;;;;;;5022733;28;20184;-75
2022/08/22 04:24:06;;;;;;;6.10;5.55;;;13.90;99.90;;;;;;5016211;28;20212;-75
2022/08/22 04:26:46;;;;;;;5.78;5.30;;;14.00;99.90;;;;;;5030912;28;20208;-75
2022/08/22 04:29:20;;;;;;;5.40;5.00;;;14.00;99.90;;;;;;5037713;28;20187;-74
2022/08/22 04:32:13;;;;;;;6.30;5.70;;;13.90;99.90;;;;;;5037098;28;20200;-75
2022/08/22 04:34:48;;;;;;;5.88;5.38;;;14.00;99.90;;;;;;5041909;28;20195;-73
2022/08/22 04:37:36;;;;;;;6.45;5.63;;;13.90;99.90;;;;;;5033039;28;20203;-74
2022/08/22 04:40:10;;;;;;;7.13;6.20;;;13.90;99.90;;;;;;5033817;28;20544;-77
2022/08/22 04:42:48;;;;;;;6.10;5.53;;;13.90;99.90;;;;;;5029864;28;20245;-74
2022/08/22 04:45:28;;;;;;;7.20;6.60;;;14.00;99.90;;;;;;5020788;28;20184;-75
2022/08/22 04:48:18;;;;;;;6.65;6.13;;;14.00;99.90;;;;;;5038616;28;20691;-75
2022/08/22 04:50:51;;;;;;;6.90;6.40;;;14.00;99.90;;;;;;5039348;28;20768;-75
2022/08/22 04:53:51;;;;;;;7.53;6.35;;;14.00;99.90;;;;;;5036297;28;20176;-75
2022/08/22 04:56:30;;;;;;;7.05;6.45;;;14.10;99.90;;;;;;5031191;28;20188;-76
2022/08/22 04:59:15;;;;;;;6.75;6.18;;;14.10;99.90;;;;;;5025831;28;20557;-77
2022/08/22 05:01:54;;;;;;;7.15;6.55;;;14.10;99.90;;;;;;5037763;28;20184;-79
2022/08/22 05:04:35;;;;;;;8.02;6.63;;;14.10;99.90;;;;;;5029308;28;20191;-77
2022/08/22 05:07:07;;;;;;;8.00;6.35;;;14.10;99.90;;;;;;5035825;28;20199;-77
2022/08/22 05:09:37;;;;;;;9.65;6.75;;;14.10;99.90;;;;;;5037008;28;20192;-77
2022/08/22 05:12:07;;;;;;;7.90;7.10;;;14.20;99.90;;;;;;5026650;28;20196;-77
2022/08/22 05:14:45;;;;;;;6.93;6.32;;;14.20;99.90;;;;;;5041610;28;20201;-78
2022/08/22 05:17:15;;;;;;;7.38;5.90;;;14.30;99.90;;;;;;5041660;28;20191;-77
2022/08/22 05:19:46;;;;;;;7.95;5.90;;;14.30;99.90;;;;;;5049622;28;20199;-77
2022/08/22 05:22:22;;;;;;;7.43;6.28;;;14.40;99.90;;;;;;5036322;28;20200;-78
2022/08/22 05:24:53;;;;;;;6.78;5.75;;;14.40;99.90;;;;;;5031820;28;20187;-77
2022/08/22 05:27:32;;;;;;;6.63;5.93;;;14.50;99.90;;;;;;5030254;28;20200;-78
2022/08/22 05:30:08;;;;;;;7.22;6.53;;;14.60;99.90;;;;;;5033293;28;20188;-78
2022/08/22 05:32:50;;;;;;;8.13;7.18;;;14.70;99.90;;;;;;5023895;28;20241;-77
2022/08/22 05:35:19;;;;;;;7.25;6.50;;;14.80;99.90;;;;;;5031816;28;20208;-78
2022/08/22 05:37:52;;;;;;;7.10;6.38;;;14.80;99.90;;;;;;5035045;28;20211;-78
2022/08/22 05:40:24;;;;;;;7.93;6.07;;;14.90;99.90;;;;;;5031764;28;20181;-77
2022/08/22 05:42:51;;;;;;;7.65;6.57;;;15.00;99.90;;;;;;5045148;28;20266;-77
2022/08/22 05:45:17;;;;;;;7.72;6.60;;;15.10;99.90;;;;;;5039984;28;20172;-78
2022/08/22 05:48:06;;;;;;;7.57;6.40;;;15.10;99.90;;;;;;5038565;28;20271;-78
2022/08/22 05:50:56;;;;;;;7.47;6.18;;;15.30;99.90;;;;;;5042789;28;20180;-76
2022/08/22 05:53:40;;;;;;;6.68;6.07;;;15.40;99.90;;;;;;5036951;28;20256;-77
2022/08/22 05:56:34;;;;;;;6.85;6.15;;;15.50;99.90;;;;;;5033102;28;20541;-78
2022/08/22 05:59:23;;;;;;;6.88;6.13;;;15.50;99.90;;;;;;5043688;28;20535;-76
2022/08/22 06:01:58;;;;;;;6.70;6.10;;;15.60;99.90;;;;;;5044547;28;20181;-77
2022/08/22 06:04:35;;;;;;;6.45;5.80;;;15.70;99.90;;;;;;5039233;28;20547;-76
2022/08/22 06:07:08;;;;;;;6.88;6.25;;;15.80;99.90;;;;;;5061154;28;20210;-76
2022/08/22 06:09:57;;;;;;;9.77;6.32;;;15.90;99.90;;;;;;5045903;28;20183;-77
2022/08/22 06:12:46;;;;;;;9.02;6.18;;;16.00;99.90;;;;;;5030538;28;20294;-77
2022/08/22 06:15:32;;;;;;;6.95;6.32;;;16.10;99.90;;;;;;5034027;28;20540;-80
2022/08/22 06:18:05;;;;;;;8.57;6.55;;;16.30;99.90;;;;;;5051492;28;20204;-77
2022/08/22 06:20:42;;;;;;;6.93;6.32;;;16.30;99.90;;;;;;5038826;28;20184;-77
2022/08/22 06:23:13;;;;;;;8.50;6.40;;;16.40;99.90;;;;;;5041811;28;20591;-78
2022/08/22 06:25:45;;;;;;;8.30;6.35;;;16.40;99.90;;;;;;5031558;28;20545;-75
2022/08/22 06:28:17;;;;;;;5.80;5.40;;;16.40;99.90;;;;;;5036330;28;20202;-77
2022/08/22 06:30:45;;;;;;;6.20;5.60;;;16.40;99.90;;;;;;5035130;28;20234;-79
2022/08/22 06:33:15;;;;;;;6.25;5.75;;;16.40;99.90;;;;;;5017871;28;20184;-77
2022/08/22 06:38:52;;;;;;;9.18;5.93;;;16.50;99.90;;;;;;5042257;28;20628;-77
2022/08/22 06:41:21;;;;;;;6.78;6.18;;;16.60;99.90;;;;;;5040733;28;20202;-77
2022/08/22 06:43:51;;;;;;;5.68;5.18;;;16.60;99.90;;;;;;5045451;28;20179;-77
2022/08/22 06:46:18;;;;;;;8.00;5.68;;;16.70;99.90;;;;;;5023143;28;20517;-74
2022/08/22 06:48:46;;;;;;;5.85;5.30;;;16.70;99.90;;;;;;5031712;28;20204;-75
2022/08/22 06:51:14;;;;;;;6.15;5.65;;;16.80;99.90;;;;;;5045481;28;20644;-74
2022/08/22 06:53:48;;;;;;;5.80;5.20;;;16.80;99.90;;;;;;5042739;28;20177;-74
2022/08/22 06:56:24;;;;;;;7.22;5.18;;;16.80;99.90;;;;;;5036303;28;20179;-74
2022/08/22 06:58:53;;;;;;;7.45;5.10;;;16.80;99.90;;;;;;5036042;28;20168;-74
2022/08/22 07:01:29;;;;;;;5.90;5.40;;;16.90;99.90;;;;;;5046987;28;20180;-74
2022/08/22 07:04:07;;;;;;;6.20;5.07;;;16.90;99.90;;;;;;5037115;28;20610;-74
2022/08/22 07:06:40;;;;;;;5.78;5.30;;;17.00;99.90;;;;;;5040508;28;20176;-74
2022/08/22 07:09:15;;;;;;;8.02;5.28;;;17.00;99.90;;;;;;5038711;28;20191;-74
2022/08/22 07:11:41;;;;;;;8.50;5.50;;;17.10;99.90;;;;;;5034426;28;20294;-73
2022/08/22 07:14:14;;;;;;;6.35;5.80;;;17.20;99.90;;;;;;5035200;28;20727;-73
2022/08/22 07:16:52;;;;;;;6.38;5.03;;;17.10;99.90;;;;;;5042506;28;20180;-74
2022/08/22 07:19:27;;;;;;;8.32;5.75;;;17.30;99.90;;;;;;5036262;28;20276;-74
2022/08/22 07:21:53;;;;;;;6.65;5.72;;;17.40;99.90;;;;;;5033680;28;20522;-74
2022/08/22 07:24:24;;;;;;;5.32;4.82;;;17.70;99.90;;;;;;5037013;28;20184;-74
2022/08/22 07:27:12;;;;;;;5.20;4.80;;;18.00;99.90;;;;;;5036018;28;20671;-73
2022/08/22 07:30:08;;;;;;;4.82;4.43;;;18.30;99.90;;;;;;5038326;28;20191;-74
2022/08/22 07:32:42;;;;;;;5.45;4.95;;;18.60;99.90;;;;;;5029867;28;20207;-74
2022/08/22 07:35:19;;;;;;;4.93;4.35;;;19.00;99.90;;;;;;5029392;28;20173;-74
2022/08/22 07:38:15;;;;;;;5.38;4.72;;;19.30;99.90;;;;;;5033887;28;20199;-76
2022/08/22 07:40:41;;;;;;;6.30;4.20;;;19.70;99.90;;;;;;5033317;28;20286;-74
2022/08/22 07:43:25;;;;;;;5.82;4.60;;;20.20;99.90;;;;;;5038176;28;20690;-74
2022/08/22 07:45:58;;;;;;;6.70;4.45;;;20.50;99.90;;;;;;5038202;28;20338;-74
2022/08/22 07:48:26;;;;;;;5.88;4.28;;;20.80;99.90;;;;;;5045179;28;20715;-74
2022/08/22 07:51:04;;;;;;;3.80;3.50;;;21.10;99.90;;;;;;5041836;28;20208;-75
2022/08/22 07:53:43;;;;;;;6.15;3.85;;;21.20;99.90;;;;;;5041423;28;20176;-74
2022/08/22 07:56:19;;;;;;;5.60;4.07;;;21.40;99.90;;;;;;5040065;28;20175;-77
2022/08/22 07:58:48;;;;;;;3.75;3.38;;;21.40;99.90;;;;;;5034052;28;20219;-77
2022/08/22 08:01:18;;;;;;;3.97;3.67;;;21.70;99.90;;;;;;5044021;28;20180;-77
2022/08/22 08:03:52;;;;;;;4.03;3.58;;;21.90;99.90;;;;;;5029732;28;20706;-77
2022/08/22 08:06:22;;;;;;;4.65;4.00;;;22.10;99.90;;;;;;5042623;28;20193;-75
2022/08/22 08:08:50;;;;;;;3.80;3.38;;;22.30;99.90;;;;;;5028070;28;20235;-75
2022/08/22 08:11:18;;;;;;;5.28;3.83;;;22.30;99.90;;;;;;5032360;28;20207;-73
2022/08/22 08:13:48;;;;;;;5.22;3.42;;;22.50;99.90;;;;;;5036139;28;20674;-73
2022/08/22 08:16:20;;;;;;;3.50;3.20;;;22.60;99.90;;;;;;5029801;28;20168;-72
2022/08/22 08:18:48;;;;;;;3.63;3.30;;;22.60;99.90;;;;;;5036470;28;20179;-72
2022/08/22 08:21:35;;;;;;;4.28;3.05;;;22.50;99.90;;;;;;5030229;28;20184;-73
2022/08/22 08:24:04;;;;;;;3.28;2.97;;;22.40;99.90;;;;;;5045702;28;20559;-73
2022/08/22 08:26:38;;;;;;;5.82;3.88;;;22.40;99.90;;;;;;5040282;28;20180;-72
2022/08/22 08:29:06;;;;;;;5.85;3.45;;;22.20;99.90;;;;;;5034826;28;20541;-72
2022/08/22 08:31:38;;;;;;;4.65;3.47;;;22.10;99.90;;;;;;5041725;28;20199;-72
2022/08/22 08:34:11;;;;;;;3.42;2.90;;;22.10;99.90;;;;;;5040395;28;20171;-73
2022/08/22 08:36:44;;;;;;;4.18;3.10;;;22.20;99.90;;;;;;5032642;28;20635;-73
2022/08/22 08:39:37;;;;;;;5.30;2.90;;;22.10;99.90;;;;;;5037372;28;20180;-72
2022/08/22 08:42:06;;;;;;;4.28;2.85;;;22.30;99.90;;;;;;5043353;28;20612;-78
2022/08/22 08:44:40;;;;;;;2.42;2.30;;;22.50;99.90;;;;;;5033585;28;20268;-78
2022/08/22 08:47:21;;;;;;;2.25;2.05;;;22.60;99.90;;;;;;5027497;28;20752;-74
2022/08/22 08:49:58;;;;;;;2.53;2.22;;;22.70;99.90;;;;;;5042798;28;20172;-74
2022/08/22 08:52:30;;;;;;;2.15;2.05;;;22.80;99.90;;;;;;5028383;28;20278;-79
2022/08/22 08:55:28;;;;;;;2.50;2.20;;;22.90;99.90;;;;;;5039358;28;20663;-75
2022/08/22 08:57:58;;;;;;;3.28;2.20;;;23.10;99.90;;;;;;5039687;28;20291;-75
2022/08/22 09:00:49;;;;;;;3.85;2.15;;;23.30;97.40;;;;;;5032383;28;20259;-75
2022/08/22 09:03:45;;;;;;;3.72;2.25;;;23.50;97.20;;;;;;5036870;28;20536;-75
2022/08/22 09:06:36;;;;;;;3.25;2.30;;;23.80;97.60;;;;;;5028625;28;20178;-74
2022/08/22 09:09:21;;;;;;;4.95;1.98;;;24.00;93.90;;;;;;5031995;28;20184;-75
2022/08/22 09:11:47;;;;;;;2.97;2.28;;;24.20;93.80;;;;;;5038290;28;20291;-75
2022/08/22 09:14:36;;;;;;;1.80;1.70;;;24.40;94.10;;;;;;5043165;28;20183;-76
2022/08/22 09:17:30;;;;;;;2.83;1.67;;;25.00;92.20;;;;;;5031309;28;20196;-77
2022/08/22 09:20:11;;;;;;;2.42;2.25;;;26.30;89.80;;;;;;5037218;28;20184;-81
2022/08/22 09:23:05;;;;;;;3.58;2.20;;;26.70;84.10;;;;;;5044288;28;20187;-77
2022/08/22 09:25:49;;;;;;;3.22;2.33;;;27.20;83.40;;;;;;5028383;28;20578;-78
2022/08/22 09:28:36;;;;;;;2.53;2.00;;;28.80;76.50;;;;;;5034001;28;20207;-77
2022/08/22 09:31:01;;;;;;;1.70;1.60;;;30.60;69.20;;;;;;5040588;28;20202;-75
2022/08/22 09:33:48;;;;;;;1.85;1.65;;;32.50;60.00;;;;;;5037778;28;20259;-74
2022/08/22 09:36:45;;;;;;;2.78;1.80;;;34.00;54.20;;;;;;5038846;28;20168;-70
2022/08/22 09:39:20;;;;;;;2.40;1.40;;;35.80;49.40;;;;;;5037457;28;20167;-70
2022/08/22 09:41:55;;;;;;;3.45;1.90;;;36.70;47.30;;;;;;5039169;28;20180;-69
2022/08/22 09:44:48;;;;;;;2.45;1.25;;;37.60;46.20;;;;;;5035528;28;20175;-69
2022/08/22 09:47:34;;;;;;;1.30;1.20;;;37.70;43.20;;;;;;5027227;28;20203;-73
2022/08/22 09:50:15;;;;;;;3.28;1.52;;;37.20;43.40;;;;;;5039375;28;20171;-72
2022/08/22 09:53:24;;;;;;;1.85;1.60;;;36.10;44.60;;;;;;5031224;28;20212;-71
2022/08/22 09:56:07;;;;;;;3.08;1.80;;;35.50;45.90;;;;;;5036214;28;20259;-73
2022/08/22 09:58:36;;;;;;;1.88;1.63;;;35.70;44.80;;;;;;5031206;28;20196;-71
2022/08/22 10:01:17;;;;;;;3.28;1.55;;;36.40;45.90;;;;;;5047420;28;20182;-72
2022/08/22 10:04:28;;;;;;;3.00;1.50;;;37.80;43.40;;;;;;5032846;28;20176;-72
2022/08/22 10:07:05;;;;;;;1.67;1.58;;;38.00;41.10;;;;;;5037668;28;20216;-71
2022/08/22 10:09:46;;;;;;;2.22;1.30;;;36.10;42.80;;;;;;5033920;28;20663;-71
2022/08/22 10:12:18;;;;;;;1.08;1.08;;;34.70;44.10;;;;;;5032440;28;20211;-71
2022/08/22 10:15:14;;;;;;;1.48;1.35;;;33.60;45.60;;;;;;5034848;28;20267;-71
2022/08/22 10:18:00;;;;;;;2.33;1.38;;;33.30;46.60;;;;;;5044840;28;20196;-73
2022/08/22 10:20:43;;;;;;;1.67;1.38;;;34.20;45.80;;;;;;5040721;28;20176;-71
2022/08/22 10:23:44;;;;;;;1.50;1.40;;;34.50;45.70;;;;;;5034832;28;20185;-73
2022/08/22 10:26:22;;;;;;;3.55;1.42;;;34.80;45.50;;;;;;5032830;28;20274;-73
2022/08/22 10:28:54;;;;;;;1.27;1.17;;;34.80;44.80;;;;;;5042664;28;20184;-72
2022/08/22 10:31:43;;;;;;;1.55;1.45;;;34.20;45.10;;;;;;5036626;28;20599;-72
2022/08/22 10:34:15;;;;;;;2.08;1.55;;;33.40;46.30;;;;;;5034034;28;20167;-73
2022/08/22 10:37:16;;;;;;;1.85;1.48;;;32.30;45.30;;;;;;5043302;28;20253;-72
2022/08/22 10:40:00;;;;;;;1.30;1.20;;;31.30;46.40;;;;;;5042423;28;20192;-72
2022/08/22 10:43:00;;;;;;;1.40;1.30;;;31.10;47.00;;;;;;5039458;28;20192;-71
2022/08/22 10:45:31;;;;;;;1.38;1.20;;;31.50;46.80;;;;;;5036885;28;20312;-72
2022/08/22 10:47:57;;;;;;;2.05;1.50;;;32.20;46.80;;;;;;5044282;28;20196;-73
2022/08/22 10:50:46;;;;;;;3.20;1.70;;;32.90;45.60;;;;;;5042280;28;20189;-74
2022/08/22 10:53:47;;;;;;;1.63;1.30;;;32.70;45.40;;;;;;5038409;28;20257;-72
2022/08/22 10:56:24;;;;;;;2.42;1.40;;;32.60;46.40;;;;;;5025684;28;20191;-72
2022/08/22 10:58:58;;;;;;;1.30;1.20;;;32.40;45.90;;;;;;5042101;28;20642;-72
2022/08/22 11:01:29;;;;;;;1.20;1.10;;;31.90;44.90;;;;;;5041192;28;20172;-73
2022/08/22 11:04:14;;;;;;;1.35;1.23;;;32.30;46.50;;;;;;5036782;28;20215;-73
2022/08/22 11:06:52;;;;;;;1.88;1.60;;;33.30;44.50;;;;;;5031632;28;20188;-72
2022/08/22 11:09:25;;;;;;;2.05;1.35;;;34.30;43.20;;;;;;5036287;28;20172;-72
2022/08/22 11:12:07;;;;;;;2.25;1.33;;;35.20;42.20;;;;;;5041439;28;20360;-72
2022/08/22 11:14:52;;;;;;;1.45;1.45;;;35.00;42.00;;;;;;5036986;28;20598;-72
2022/08/22 11:17:32;;;;;;;1.52;1.42;;;34.80;42.50;;;;;;5037720;28;20195;-72
2022/08/22 11:20:21;;;;;;;2.58;1.20;;;35.00;42.20;;;;;;5033657;28;20181;-72
2022/08/22 11:23:26;;;;;;;2.35;1.10;;;35.20;43.30;;;;;;5033961;28;20172;-73
2022/08/22 11:26:26;;;;;;;2.33;1.50;;;35.90;42.30;;;;;;5036609;28;20680;-72
2022/08/22 11:29:06;;;;;;;1.67;1.55;;;36.60;40.70;;;;;;5035961;28;20267;-73
2022/08/22 11:31:59;;;;;;;1.63;1.42;;;37.80;40.30;;;;;;5030885;28;20211;-72
2022/08/22 11:34:31;;;;;;;1.60;1.50;;;38.90;39.10;;;;;;5033326;28;20184;-72
2022/08/22 11:37:07;;;;;;;3.72;1.60;;;39.80;38.20;;;;;;5035848;28;20196;-73
2022/08/22 11:39:41;;;;;;;1.33;1.23;;;40.40;37.70;;;;;;5030136;28;20180;-73
2022/08/22 11:42:43;;;;;;;1.45;1.40;;;40.90;36.50;;;;;;5031997;28;20657;-73
2022/08/22 11:45:15;;;;;;;1.42;1.40;;;40.70;36.70;;;;;;5029750;28;20190;-72
2022/08/22 11:47:56;;;;;;;4.00;1.40;;;40.80;36.70;;;;;;5027969;28;20200;-74
2022/08/22 11:50:36;;;;;;;1.33;1.20;;;39.20;37.90;;;;;;5035937;28;20206;-73
2022/08/22 11:53:33;;;;;;;1.83;1.55;;;37.50;40.20;;;;;;5039131;28;20213;-73
2022/08/22 11:56:28;;;;;;;2.35;1.58;;;35.90;40.80;;;;;;5040594;28;20179;-73
2022/08/22 11:59:01;;;;;;;3.38;1.55;;;35.00;42.20;;;;;;5034193;28;20176;-74
2022/08/22 12:01:51;;;;;;;1.45;1.35;;;34.10;43.90;;;;;;5036164;28;20215;-73
2022/08/22 12:04:30;;;;;;;1.98;1.75;;;34.10;44.60;;;;;;5023179;28;20269;-73
2022/08/22 12:07:33;;;;;;;2.40;1.70;;;35.00;43.40;;;;;;5031518;28;20256;-74
2022/08/22 12:10:02;;;;;;;1.95;1.77;;;35.50;42.40;;;;;;5026458;28;20175;-72
2022/08/22 12:12:49;;;;;;;2.40;1.58;;;36.00;41.80;;;;;;5033176;28;20585;-72
2022/08/22 12:15:49;;;;;;;1.50;1.40;;;36.00;41.60;;;;;;5023505;28;20181;-73
2022/08/22 12:18:37;;;;;;;1.60;1.33;;;36.50;41.10;;;;;;5029405;28;20211;-73
2022/08/22 12:21:18;;;;;;;1.58;1.48;;;36.50;41.60;;;;;;5033667;28;20229;-72
2022/08/22 12:24:05;;;;;;;1.92;1.60;;;37.00;40.90;;;;;;5030672;28;20176;-74
2022/08/22 12:26:34;;;;;;;1.77;1.20;;;36.80;39.40;;;;;;5032786;28;20186;-73
2022/08/22 12:29:25;;;;;;;1.58;1.48;;;36.80;40.50;;;;;;5033728;28;20569;-77
2022/08/22 12:32:27;;;;;;;1.17;1.08;;;36.90;39.80;;;;;;5037393;28;20283;-75
2022/08/22 12:35:29;;;;;;;3.03;1.63;;;37.20;40.40;;;;;;5040195;28;20650;-73
2022/08/22 12:38:06;;;;;;;2.03;1.20;;;38.10;38.80;;;;;;5037079;28;20570;-75
2022/08/22 12:40:39;;;;;;;1.83;1.70;;;38.30;38.00;;;;;;5034863;28;20186;-75
2022/08/22 12:43:05;;;;;;;1.60;1.33;;;37.40;39.50;;;;;;5032084;28;20606;-75
2022/08/22 12:45:33;;;;;;;1.33;1.30;;;36.90;40.70;;;;;;5036612;28;20274;-73
2022/08/22 12:48:34;;;;;;;2.08;1.30;;;37.20;40.90;;;;;;5035747;28;20207;-73
2022/08/22 12:51:19;;;;;;;1.88;1.55;;;37.90;39.20;;;;;;5041855;28;20183;-73
2022/08/22 12:53:45;;;;;;;2.08;1.20;;;38.60;39.80;;;;;;5041468;28;20215;-73
2022/08/22 12:56:24;;;;;;;2.42;1.50;;;39.10;37.80;;;;;;5038769;28;20624;-73
2022/08/22 12:59:18;;;;;;;1.42;1.20;;;39.60;37.70;;;;;;5032021;28;20648;-72
2022/08/22 13:01:49;;;;;;;1.27;1.23;;;39.20;37.80;;;;;;5040611;28;20222;-72
2022/08/22 13:04:24;;;;;;;1.95;1.20;;;38.20;38.40;;;;;;5030841;28;20572;-73
2022/08/22 13:07:06;;;;;;;1.60;1.23;;;38.10;37.20;;;;;;5041292;28;20209;-73
2022/08/22 13:09:36;;;;;;;1.42;1.30;;;37.80;37.70;;;;;;5041072;28;20175;-73
2022/08/22 13:12:21;;;;;;;1.73;1.38;;;38.60;37.80;;;;;;5037174;28;20313;-73
2022/08/22 13:14:51;;;;;;;2.17;1.27;;;39.70;36.20;;;;;;5035262;28;20172;-73
2022/08/22 13:17:20;;;;;;;1.50;1.40;;;40.70;36.20;;;;;;5037321;28;20274;-73
2022/08/22 13:20:01;;;;;;;4.25;1.38;;;41.20;35.80;;;;;;5032065;28;20177;-73
2022/08/22 13:22:30;;;;;;;2.22;1.40;;;40.10;35.30;;;;;;5031005;28;20180;-73
2022/08/22 13:25:34;;;;;;;2.03;1.30;;;39.10;37.10;;;;;;5038092;28;20207;-73
2022/08/22 13:28:02;;;;;;;1.50;1.40;;;39.30;37.00;;;;;;5037876;28;20230;-73
2022/08/22 13:30:36;;;;;;;2.28;1.30;;;39.50;36.60;;;;;;5023215;28;20196;-73
2022/08/22 13:33:14;;;;;;;2.28;1.38;;;39.60;36.90;;;;;;5040105;28;20203;-73
2022/08/22 13:35:47;;;;;;;1.40;1.30;;;39.10;36.90;;;;;;5039364;28;20180;-73
2022/08/22 13:38:53;;;;;;;1.67;1.40;;;38.80;37.20;;;;;;5026902;28;20662;-73
2022/08/22 13:41:24;;;;;;;1.35;1.10;;;37.60;37.90;;;;;;5039352;28;20562;-73
2022/08/22 13:44:07;;;;;;;1.38;1.25;;;37.80;38.80;;;;;;5040606;28;20651;-72
2022/08/22 13:46:36;;;;;;;2.25;1.40;;;37.10;38.60;;;;;;5035356;28;20298;-71
2022/08/22 13:49:08;;;;;;;3.28;1.45;;;35.80;39.80;;;;;;5049217;28;20195;-72
2022/08/22 13:51:48;;;;;;;1.55;1.30;;;34.20;41.20;;;;;;5042687;28;20203;-72
2022/08/22 13:54:13;;;;;;;4.75;1.50;;;33.30;42.90;;;;;;5038694;28;20182;-72
2022/08/22 13:56:48;;;;;;;2.50;1.38;;;32.60;45.30;;;;;;5026238;28;20180;-72
2022/08/22 13:59:44;;;;;;;2.40;1.73;;;32.20;45.20;;;;;;5035603;28;20201;-72
2022/08/22 14:02:45;;;;;;;2.30;1.65;;;31.40;47.20;;;;;;5027918;28;20189;-72
2022/08/22 14:05:32;;;;;;;2.03;1.55;;;30.70;48.60;;;;;;5043465;28;20195;-72